sensor_id;sensor_type;location;lat;lon;timestamp;P1;durP1;ratioP1;P2;durP2;ratioP2
1831;SDS011;1680;48.106;11.708;2022-09-03T00:00:15;3.97;;;3.63;;
1831;SDS011;1680;48.106;11.708;2022-09-03T00:02:44;3.47;;;3.17;;
1831;SDS011;1680;48.106;11.708;2022-09-03T00:05:18;3.40;;;3.10;;
1831;SDS011;1680;48.106;11.708;2022-09-03T00:07:50;3.30;;;3.00;;
1831;SDS011;1680;48.106;11.708;2022-09-03T00:10:23;3.70;;;3.20;;
1831;SDS011;1680;48.106;11.708;2022-09-03T00:12:52;3.53;;;3.23;;
1831;SDS011;1680;48.106;11.708;2022-09-03T00:15:21;4.70;;;3.47;;
1831;SDS011;1680;48.106;11.708;2022-09-03T00:17:50;3.40;;;3.10;;
1831;SDS011;1680;48.106;11.708;2022-09-03T00:20:19;3.27;;;2.80;;
1831;SDS011;1680;48.106;11.708;2022-09-03T00:22:47;3.20;;;3.00;;
1831;SDS011;1680;48.106;11.708;2022-09-03T00:25:16;4.20;;;3.03;;
1831;SDS011;1680;48.106;11.708;2022-09-03T00:27:46;3.27;;;3.03;;
1831;SDS011;1680;48.106;11.708;2022-09-03T00:30:15;3.83;;;3.43;;
1831;SDS011;1680;48.106;11.708;2022-09-03T00:32:43;2.87;;;2.67;;
1831;SDS011;1680;48.106;11.708;2022-09-03T00:35:13;3.20;;;3.00;;
1831;SDS011;1680;48.106;11.708;2022-09-03T00:37:41;3.07;;;2.87;;
1831;SDS011;1680;48.106;11.708;2022-09-03T00:40:09;3.40;;;3.20;;
1831;SDS011;1680;48.106;11.708;2022-09-03T00:42:39;3.13;;;2.90;;
1831;SDS011;1680;48.106;11.708;2022-09-03T00:45:11;3.77;;;2.90;;
1831;SDS011;1680;48.106;11.708;2022-09-03T00:47:44;3.13;;;2.83;;
1831;SDS011;1680;48.106;11.708;2022-09-03T00:50:14;3.40;;;3.20;;
1831;SDS011;1680;48.106;11.708;2022-09-03T00:52:46;3.50;;;3.20;;
1831;SDS011;1680;48.106;11.708;2022-09-03T00:55:24;3.17;;;2.87;;
1831;SDS011;1680;48.106;11.708;2022-09-03T00:57:56;4.13;;;3.37;;
1831;SDS011;1680;48.106;11.708;2022-09-03T01:00:25;3.10;;;2.90;;
1831;SDS011;1680;48.106;11.708;2022-09-03T01:02:58;3.50;;;3.20;;
1831;SDS011;1680;48.106;11.708;2022-09-03T01:05:31;3.53;;;3.23;;
1831;SDS011;1680;48.106;11.708;2022-09-03T01:08:04;3.00;;;2.80;;
1831;SDS011;1680;48.106;11.708;2022-09-03T01:10:33;3.17;;;2.77;;
1831;SDS011;1680;48.106;11.708;2022-09-03T01:13:04;3.10;;;2.90;;
1831;SDS011;1680;48.106;11.708;2022-09-03T01:15:39;3.17;;;2.97;;
1831;SDS011;1680;48.106;11.708;2022-09-03T01:18:12;3.30;;;2.97;;
1831;SDS011;1680;48.106;11.708;2022-09-03T01:20:46;3.00;;;2.80;;
1831;SDS011;1680;48.106;11.708;2022-09-03T01:23:37;4.43;;;3.10;;
1831;SDS011;1680;48.106;11.708;2022-09-03T01:26:22;3.00;;;2.80;;
1831;SDS011;1680;48.106;11.708;2022-09-03T01:28:55;2.97;;;2.77;;
1831;SDS011;1680;48.106;11.708;2022-09-03T01:31:27;3.50;;;3.20;;
1831;SDS011;1680;48.106;11.708;2022-09-03T01:33:56;3.17;;;2.97;;
1831;SDS011;1680;48.106;11.708;2022-09-03T01:36:29;3.10;;;2.90;;
1831;SDS011;1680;48.106;11.708;2022-09-03T01:38:59;3.17;;;2.87;;
1831;SDS011;1680;48.106;11.708;2022-09-03T01:41:29;3.80;;;3.50;;
1831;SDS011;1680;48.106;11.708;2022-09-03T01:44:21;3.67;;;3.37;;
1831;SDS011;1680;48.106;11.708;2022-09-03T01:46:53;3.37;;;3.17;;
1831;SDS011;1680;48.106;11.708;2022-09-03T01:49:24;3.30;;;3.00;;
1831;SDS011;1680;48.106;11.708;2022-09-03T01:51:54;3.97;;;3.63;;
1831;SDS011;1680;48.106;11.708;2022-09-03T01:54:25;3.00;;;2.70;;
1831;SDS011;1680;48.106;11.708;2022-09-03T01:59:46;3.40;;;3.10;;
1831;SDS011;1680;48.106;11.708;2022-09-03T02:02:15;3.53;;;2.90;;
1831;SDS011;1680;48.106;11.708;2022-09-03T02:04:54;3.07;;;2.83;;
1831;SDS011;1680;48.106;11.708;2022-09-03T02:07:21;3.63;;;3.33;;
1831;SDS011;1680;48.106;11.708;2022-09-03T02:09:49;3.83;;;3.53;;
1831;SDS011;1680;48.106;11.708;2022-09-03T02:12:15;3.10;;;2.90;;
1831;SDS011;1680;48.106;11.708;2022-09-03T02:14:45;3.97;;;3.67;;
1831;SDS011;1680;48.106;11.708;2022-09-03T02:17:12;3.73;;;3.53;;
1831;SDS011;1680;48.106;11.708;2022-09-03T02:19:39;3.30;;;3.10;;
1831;SDS011;1680;48.106;11.708;2022-09-03T02:22:05;3.77;;;3.47;;
1831;SDS011;1680;48.106;11.708;2022-09-03T02:24:32;3.53;;;3.30;;
1831;SDS011;1680;48.106;11.708;2022-09-03T02:26:59;3.10;;;2.90;;
1831;SDS011;1680;48.106;11.708;2022-09-03T02:29:26;3.43;;;3.07;;
1831;SDS011;1680;48.106;11.708;2022-09-03T02:31:54;3.50;;;3.20;;
1831;SDS011;1680;48.106;11.708;2022-09-03T02:34:20;3.60;;;3.30;;
1831;SDS011;1680;48.106;11.708;2022-09-03T02:36:48;3.23;;;2.93;;
1831;SDS011;1680;48.106;11.708;2022-09-03T02:39:15;3.00;;;2.80;;
1831;SDS011;1680;48.106;11.708;2022-09-03T02:41:42;3.30;;;3.03;;
1831;SDS011;1680;48.106;11.708;2022-09-03T02:44:10;3.20;;;3.00;;
1831;SDS011;1680;48.106;11.708;2022-09-03T02:46:38;3.10;;;2.90;;
1831;SDS011;1680;48.106;11.708;2022-09-03T02:49:07;3.90;;;3.30;;
1831;SDS011;1680;48.106;11.708;2022-09-03T02:51:33;4.87;;;3.10;;
1831;SDS011;1680;48.106;11.708;2022-09-03T02:54:00;3.07;;;2.87;;
1831;SDS011;1680;48.106;11.708;2022-09-03T02:56:27;3.00;;;2.80;;
1831;SDS011;1680;48.106;11.708;2022-09-03T02:58:53;3.23;;;2.93;;
1831;SDS011;1680;48.106;11.708;2022-09-03T03:01:20;3.23;;;3.03;;
1831;SDS011;1680;48.106;11.708;2022-09-03T03:03:47;3.30;;;3.10;;
1831;SDS011;1680;48.106;11.708;2022-09-03T03:06:15;3.00;;;2.80;;
1831;SDS011;1680;48.106;11.708;2022-09-03T03:08:45;3.13;;;2.90;;
1831;SDS011;1680;48.106;11.708;2022-09-03T03:11:12;3.47;;;3.17;;
1831;SDS011;1680;48.106;11.708;2022-09-03T03:13:40;3.90;;;3.60;;
1831;SDS011;1680;48.106;11.708;2022-09-03T03:16:06;3.10;;;2.90;;
1831;SDS011;1680;48.106;11.708;2022-09-03T03:18:33;3.63;;;3.33;;
1831;SDS011;1680;48.106;11.708;2022-09-03T03:21:02;6.57;;;3.30;;
1831;SDS011;1680;48.106;11.708;2022-09-03T03:23:31;3.17;;;2.87;;
1831;SDS011;1680;48.106;11.708;2022-09-03T03:25:59;2.97;;;2.77;;
1831;SDS011;1680;48.106;11.708;2022-09-03T03:28:26;3.00;;;2.80;;
1831;SDS011;1680;48.106;11.708;2022-09-03T03:30:52;3.53;;;3.23;;
1831;SDS011;1680;48.106;11.708;2022-09-03T03:33:19;3.40;;;3.10;;
1831;SDS011;1680;48.106;11.708;2022-09-03T03:35:46;3.50;;;3.20;;
1831;SDS011;1680;48.106;11.708;2022-09-03T03:38:12;3.60;;;3.30;;
1831;SDS011;1680;48.106;11.708;2022-09-03T03:40:40;3.70;;;3.40;;
1831;SDS011;1680;48.106;11.708;2022-09-03T03:43:07;3.37;;;3.00;;
1831;SDS011;1680;48.106;11.708;2022-09-03T03:45:34;3.30;;;3.00;;
1831;SDS011;1680;48.106;11.708;2022-09-03T03:48:00;3.13;;;2.90;;
1831;SDS011;1680;48.106;11.708;2022-09-03T03:50:27;3.00;;;2.80;;
1831;SDS011;1680;48.106;11.708;2022-09-03T03:52:53;3.53;;;3.30;;
1831;SDS011;1680;48.106;11.708;2022-09-03T03:55:20;3.20;;;3.00;;
1831;SDS011;1680;48.106;11.708;2022-09-03T03:57:48;3.77;;;3.47;;
1831;SDS011;1680;48.106;11.708;2022-09-03T04:00:15;3.47;;;3.17;;
1831;SDS011;1680;48.106;11.708;2022-09-03T04:02:42;3.37;;;3.17;;
1831;SDS011;1680;48.106;11.708;2022-09-03T04:05:09;4.50;;;3.00;;
1831;SDS011;1680;48.106;11.708;2022-09-03T04:07:35;3.80;;;3.40;;
1831;SDS011;1680;48.106;11.708;2022-09-03T04:10:02;3.40;;;3.17;;
1831;SDS011;1680;48.106;11.708;2022-09-03T04:12:28;3.10;;;2.90;;
1831;SDS011;1680;48.106;11.708;2022-09-03T04:14:56;3.50;;;3.20;;
1831;SDS011;1680;48.106;11.708;2022-09-03T04:17:22;3.33;;;3.10;;
1831;SDS011;1680;48.106;11.708;2022-09-03T04:19:49;4.67;;;3.70;;
1831;SDS011;1680;48.106;11.708;2022-09-03T04:22:15;3.17;;;2.87;;
1831;SDS011;1680;48.106;11.708;2022-09-03T04:24:43;3.63;;;3.33;;
1831;SDS011;1680;48.106;11.708;2022-09-03T04:27:09;3.53;;;3.30;;
1831;SDS011;1680;48.106;11.708;2022-09-03T04:29:36;3.57;;;3.27;;
1831;SDS011;1680;48.106;11.708;2022-09-03T04:32:05;3.40;;;3.10;;
1831;SDS011;1680;48.106;11.708;2022-09-03T04:34:49;3.30;;;3.10;;
1831;SDS011;1680;48.106;11.708;2022-09-03T04:37:15;3.43;;;3.13;;
1831;SDS011;1680;48.106;11.708;2022-09-03T04:39:43;3.60;;;3.30;;
1831;SDS011;1680;48.106;11.708;2022-09-03T04:42:10;3.50;;;3.17;;
1831;SDS011;1680;48.106;11.708;2022-09-03T04:44:36;3.17;;;2.97;;
1831;SDS011;1680;48.106;11.708;2022-09-03T04:47:06;3.13;;;2.93;;
1831;SDS011;1680;48.106;11.708;2022-09-03T04:49:33;3.40;;;3.10;;
1831;SDS011;1680;48.106;11.708;2022-09-03T04:51:59;3.20;;;3.00;;
1831;SDS011;1680;48.106;11.708;2022-09-03T04:54:26;3.30;;;3.10;;
1831;SDS011;1680;48.106;11.708;2022-09-03T04:56:53;3.50;;;3.20;;
1831;SDS011;1680;48.106;11.708;2022-09-03T04:59:20;3.77;;;3.47;;
1831;SDS011;1680;48.106;11.708;2022-09-03T05:01:46;3.70;;;3.40;;
1831;SDS011;1680;48.106;11.708;2022-09-03T05:04:14;3.77;;;3.40;;
1831;SDS011;1680;48.106;11.708;2022-09-03T05:06:41;3.60;;;3.30;;
1831;SDS011;1680;48.106;11.708;2022-09-03T05:09:07;3.80;;;3.50;;
1831;SDS011;1680;48.106;11.708;2022-09-03T05:11:34;3.50;;;3.20;;
1831;SDS011;1680;48.106;11.708;2022-09-03T05:14:00;3.53;;;3.33;;
1831;SDS011;1680;48.106;11.708;2022-09-03T05:16:27;3.80;;;3.50;;
1831;SDS011;1680;48.106;11.708;2022-09-03T05:18:55;4.20;;;3.73;;
1831;SDS011;1680;48.106;11.708;2022-09-03T05:21:25;3.37;;;3.07;;
1831;SDS011;1680;48.106;11.708;2022-09-03T05:23:51;4.07;;;3.77;;
1831;SDS011;1680;48.106;11.708;2022-09-03T05:26:18;3.70;;;3.40;;
1831;SDS011;1680;48.106;11.708;2022-09-03T05:28:45;3.87;;;3.57;;
1831;SDS011;1680;48.106;11.708;2022-09-03T05:31:13;3.87;;;3.33;;
1831;SDS011;1680;48.106;11.708;2022-09-03T05:33:41;4.17;;;3.77;;
1831;SDS011;1680;48.106;11.708;2022-09-03T05:36:08;4.13;;;3.83;;
1831;SDS011;1680;48.106;11.708;2022-09-03T05:38:37;3.90;;;3.60;;
1831;SDS011;1680;48.106;11.708;2022-09-03T05:41:04;5.40;;;4.90;;
1831;SDS011;1680;48.106;11.708;2022-09-03T05:43:31;4.30;;;4.00;;
1831;SDS011;1680;48.106;11.708;2022-09-03T05:45:58;4.20;;;3.90;;
1831;SDS011;1680;48.106;11.708;2022-09-03T05:48:24;4.50;;;4.10;;
1831;SDS011;1680;48.106;11.708;2022-09-03T05:50:57;5.10;;;4.40;;
1831;SDS011;1680;48.106;11.708;2022-09-03T05:53:24;4.80;;;4.40;;
1831;SDS011;1680;48.106;11.708;2022-09-03T05:55:55;5.10;;;4.70;;
1831;SDS011;1680;48.106;11.708;2022-09-03T05:58:22;4.43;;;4.07;;
1831;SDS011;1680;48.106;11.708;2022-09-03T06:00:49;4.27;;;3.97;;
1831;SDS011;1680;48.106;11.708;2022-09-03T06:03:16;4.40;;;4.10;;
1831;SDS011;1680;48.106;11.708;2022-09-03T06:05:48;4.23;;;3.93;;
1831;SDS011;1680;48.106;11.708;2022-09-03T06:08:14;4.33;;;3.50;;
1831;SDS011;1680;48.106;11.708;2022-09-03T06:10:41;4.00;;;3.70;;
1831;SDS011;1680;48.106;11.708;2022-09-03T06:13:09;4.10;;;3.80;;
1831;SDS011;1680;48.106;11.708;2022-09-03T06:15:36;3.93;;;3.63;;
1831;SDS011;1680;48.106;11.708;2022-09-03T06:18:02;3.93;;;3.63;;
1831;SDS011;1680;48.106;11.708;2022-09-03T06:20:29;4.63;;;4.23;;
1831;SDS011;1680;48.106;11.708;2022-09-03T06:22:56;4.10;;;3.80;;
1831;SDS011;1680;48.106;11.708;2022-09-03T06:25:23;3.60;;;3.40;;
1831;SDS011;1680;48.106;11.708;2022-09-03T06:27:50;3.80;;;3.40;;
1831;SDS011;1680;48.106;11.708;2022-09-03T06:30:18;3.93;;;3.63;;
1831;SDS011;1680;48.106;11.708;2022-09-03T06:32:46;4.13;;;3.83;;
1831;SDS011;1680;48.106;11.708;2022-09-03T06:35:14;4.43;;;4.03;;
1831;SDS011;1680;48.106;11.708;2022-09-03T06:37:41;4.47;;;4.17;;
1831;SDS011;1680;48.106;11.708;2022-09-03T06:40:08;4.60;;;4.20;;
1831;SDS011;1680;48.106;11.708;2022-09-03T06:42:36;5.50;;;4.93;;
1831;SDS011;1680;48.106;11.708;2022-09-03T06:45:04;4.77;;;4.37;;
1831;SDS011;1680;48.106;11.708;2022-09-03T06:47:32;4.23;;;3.93;;
1831;SDS011;1680;48.106;11.708;2022-09-03T06:49:59;3.90;;;3.60;;
1831;SDS011;1680;48.106;11.708;2022-09-03T06:52:26;4.27;;;3.80;;
1831;SDS011;1680;48.106;11.708;2022-09-03T06:54:52;4.13;;;3.87;;
1831;SDS011;1680;48.106;11.708;2022-09-03T06:57:19;3.83;;;3.53;;
1831;SDS011;1680;48.106;11.708;2022-09-03T06:59:45;4.40;;;3.60;;
1831;SDS011;1680;48.106;11.708;2022-09-03T07:02:13;3.87;;;3.57;;
1831;SDS011;1680;48.106;11.708;2022-09-03T07:04:41;4.50;;;4.10;;
1831;SDS011;1680;48.106;11.708;2022-09-03T07:07:08;3.93;;;3.63;;
1831;SDS011;1680;48.106;11.708;2022-09-03T07:09:37;4.47;;;4.07;;
1831;SDS011;1680;48.106;11.708;2022-09-03T07:12:03;4.60;;;4.20;;
1831;SDS011;1680;48.106;11.708;2022-09-03T07:14:30;4.83;;;4.43;;
1831;SDS011;1680;48.106;11.708;2022-09-03T07:16:57;5.27;;;4.00;;
1831;SDS011;1680;48.106;11.708;2022-09-03T07:19:23;4.70;;;4.30;;
1831;SDS011;1680;48.106;11.708;2022-09-03T07:21:51;4.23;;;3.83;;
1831;SDS011;1680;48.106;11.708;2022-09-03T07:24:18;4.37;;;4.07;;
1831;SDS011;1680;48.106;11.708;2022-09-03T07:26:46;4.47;;;4.07;;
1831;SDS011;1680;48.106;11.708;2022-09-03T07:29:13;6.30;;;5.07;;
1831;SDS011;1680;48.106;11.708;2022-09-03T07:31:40;4.77;;;4.37;;
1831;SDS011;1680;48.106;11.708;2022-09-03T07:34:07;4.20;;;3.90;;
1831;SDS011;1680;48.106;11.708;2022-09-03T07:36:35;4.87;;;3.73;;
1831;SDS011;1680;48.106;11.708;2022-09-03T07:39:04;4.63;;;4.23;;
1831;SDS011;1680;48.106;11.708;2022-09-03T07:41:31;4.57;;;4.17;;
1831;SDS011;1680;48.106;11.708;2022-09-03T07:43:58;3.63;;;3.37;;
1831;SDS011;1680;48.106;11.708;2022-09-03T07:46:30;4.30;;;3.90;;
1831;SDS011;1680;48.106;11.708;2022-09-03T07:48:58;5.10;;;4.00;;
1831;SDS011;1680;48.106;11.708;2022-09-03T07:51:27;4.93;;;3.90;;
1831;SDS011;1680;48.106;11.708;2022-09-03T07:53:54;6.40;;;4.20;;
1831;SDS011;1680;48.106;11.708;2022-09-03T07:56:23;3.90;;;3.60;;
1831;SDS011;1680;48.106;11.708;2022-09-03T07:58:49;4.47;;;4.17;;
1831;SDS011;1680;48.106;11.708;2022-09-03T08:01:16;4.63;;;4.23;;
1831;SDS011;1680;48.106;11.708;2022-09-03T08:03:44;4.10;;;3.80;;
1831;SDS011;1680;48.106;11.708;2022-09-03T08:06:11;3.70;;;3.40;;
1831;SDS011;1680;48.106;11.708;2022-09-03T08:08:38;4.00;;;3.70;;
1831;SDS011;1680;48.106;11.708;2022-09-03T08:11:05;8.40;;;4.20;;
1831;SDS011;1680;48.106;11.708;2022-09-03T08:13:35;4.40;;;4.10;;
1831;SDS011;1680;48.106;11.708;2022-09-03T08:16:02;4.20;;;3.90;;
1831;SDS011;1680;48.106;11.708;2022-09-03T08:18:29;4.40;;;4.10;;
1831;SDS011;1680;48.106;11.708;2022-09-03T08:20:59;4.27;;;3.87;;
1831;SDS011;1680;48.106;11.708;2022-09-03T08:23:25;5.03;;;4.63;;
1831;SDS011;1680;48.106;11.708;2022-09-03T08:25:56;8.43;;;4.40;;
1831;SDS011;1680;48.106;11.708;2022-09-03T08:28:23;4.33;;;4.03;;
1831;SDS011;1680;48.106;11.708;2022-09-03T08:30:50;4.20;;;3.90;;
1831;SDS011;1680;48.106;11.708;2022-09-03T08:33:17;4.43;;;4.00;;
1831;SDS011;1680;48.106;11.708;2022-09-03T08:36:01;5.37;;;4.97;;
1831;SDS011;1680;48.106;11.708;2022-09-03T08:38:29;4.97;;;4.57;;
1831;SDS011;1680;48.106;11.708;2022-09-03T08:41:01;4.43;;;4.13;;
1831;SDS011;1680;48.106;11.708;2022-09-03T08:43:28;4.27;;;3.87;;
1831;SDS011;1680;48.106;11.708;2022-09-03T08:45:56;4.20;;;3.90;;
1831;SDS011;1680;48.106;11.708;2022-09-03T08:48:24;4.40;;;4.10;;
1831;SDS011;1680;48.106;11.708;2022-09-03T08:50:51;4.70;;;4.33;;
1831;SDS011;1680;48.106;11.708;2022-09-03T08:53:24;4.40;;;4.10;;
1831;SDS011;1680;48.106;11.708;2022-09-03T08:55:55;4.53;;;4.23;;
1831;SDS011;1680;48.106;11.708;2022-09-03T08:58:24;5.07;;;4.57;;
1831;SDS011;1680;48.106;11.708;2022-09-03T09:00:53;5.33;;;4.73;;
1831;SDS011;1680;48.106;11.708;2022-09-03T09:03:42;4.00;;;3.70;;
1831;SDS011;1680;48.106;11.708;2022-09-03T09:06:16;5.00;;;4.03;;
1831;SDS011;1680;48.106;11.708;2022-09-03T09:08:47;4.63;;;4.27;;
1831;SDS011;1680;48.106;11.708;2022-09-03T09:11:19;4.40;;;4.10;;
1831;SDS011;1680;48.106;11.708;2022-09-03T09:13:53;5.00;;;4.60;;
1831;SDS011;1680;48.106;11.708;2022-09-03T09:16:22;4.50;;;4.20;;
1831;SDS011;1680;48.106;11.708;2022-09-03T09:18:55;4.47;;;4.17;;
1831;SDS011;1680;48.106;11.708;2022-09-03T09:21:26;4.37;;;4.07;;
1831;SDS011;1680;48.106;11.708;2022-09-03T09:23:53;4.30;;;4.00;;
1831;SDS011;1680;48.106;11.708;2022-09-03T09:26:22;4.20;;;3.90;;
1831;SDS011;1680;48.106;11.708;2022-09-03T09:28:51;4.10;;;3.80;;
1831;SDS011;1680;48.106;11.708;2022-09-03T09:31:18;3.93;;;3.63;;
1831;SDS011;1680;48.106;11.708;2022-09-03T09:33:45;4.07;;;3.63;;
1831;SDS011;1680;48.106;11.708;2022-09-03T09:36:13;3.77;;;3.47;;
1831;SDS011;1680;48.106;11.708;2022-09-03T09:38:41;3.93;;;3.63;;
1831;SDS011;1680;48.106;11.708;2022-09-03T09:41:08;4.20;;;3.90;;
1831;SDS011;1680;48.106;11.708;2022-09-03T09:43:35;3.83;;;3.53;;
1831;SDS011;1680;48.106;11.708;2022-09-03T09:46:05;3.83;;;3.53;;
1831;SDS011;1680;48.106;11.708;2022-09-03T09:48:36;3.57;;;3.33;;
1831;SDS011;1680;48.106;11.708;2022-09-03T09:51:05;4.63;;;4.33;;
1831;SDS011;1680;48.106;11.708;2022-09-03T09:53:33;3.77;;;3.47;;
1831;SDS011;1680;48.106;11.708;2022-09-03T09:56:00;3.37;;;3.17;;
1831;SDS011;1680;48.106;11.708;2022-09-03T09:58:27;3.67;;;3.47;;
1831;SDS011;1680;48.106;11.708;2022-09-03T10:00:57;3.73;;;3.50;;
1831;SDS011;1680;48.106;11.708;2022-09-03T10:03:24;3.47;;;3.20;;
1831;SDS011;1680;48.106;11.708;2022-09-03T10:06:00;3.97;;;3.60;;
1831;SDS011;1680;48.106;11.708;2022-09-03T10:08:49;3.77;;;3.53;;
1831;SDS011;1680;48.106;11.708;2022-09-03T10:11:16;3.97;;;3.67;;
1831;SDS011;1680;48.106;11.708;2022-09-03T10:13:44;4.10;;;3.80;;
1831;SDS011;1680;48.106;11.708;2022-09-03T10:16:14;3.73;;;3.50;;
1831;SDS011;1680;48.106;11.708;2022-09-03T10:18:45;2.80;;;2.60;;
1831;SDS011;1680;48.106;11.708;2022-09-03T10:21:14;3.30;;;3.10;;
1831;SDS011;1680;48.106;11.708;2022-09-03T10:23:47;3.03;;;2.83;;
1831;SDS011;1680;48.106;11.708;2022-09-03T10:26:17;3.80;;;3.50;;
1831;SDS011;1680;48.106;11.708;2022-09-03T10:28:46;2.90;;;2.70;;
1831;SDS011;1680;48.106;11.708;2022-09-03T10:31:22;3.07;;;2.70;;
1831;SDS011;1680;48.106;11.708;2022-09-03T10:33:57;3.40;;;3.03;;
1831;SDS011;1680;48.106;11.708;2022-09-03T10:36:27;2.93;;;2.73;;
1831;SDS011;1680;48.106;11.708;2022-09-03T10:38:58;3.00;;;2.80;;
1831;SDS011;1680;48.106;11.708;2022-09-03T10:41:36;2.77;;;2.57;;
1831;SDS011;1680;48.106;11.708;2022-09-03T10:44:14;2.60;;;2.50;;
1831;SDS011;1680;48.106;11.708;2022-09-03T10:46:45;3.00;;;2.80;;
1831;SDS011;1680;48.106;11.708;2022-09-03T10:49:19;3.20;;;2.60;;
1831;SDS011;1680;48.106;11.708;2022-09-03T10:51:53;2.97;;;2.77;;
1831;SDS011;1680;48.106;11.708;2022-09-03T10:54:26;2.80;;;2.60;;
1831;SDS011;1680;48.106;11.708;2022-09-03T10:56:59;2.80;;;2.60;;
1831;SDS011;1680;48.106;11.708;2022-09-03T10:59:34;2.90;;;2.70;;
1831;SDS011;1680;48.106;11.708;2022-09-03T11:02:08;2.83;;;2.63;;
1831;SDS011;1680;48.106;11.708;2022-09-03T11:04:42;3.00;;;2.60;;
1831;SDS011;1680;48.106;11.708;2022-09-03T11:07:13;2.93;;;2.73;;
1831;SDS011;1680;48.106;11.708;2022-09-03T11:09:44;2.50;;;2.17;;
1831;SDS011;1680;48.106;11.708;2022-09-03T11:12:15;2.43;;;2.20;;
1831;SDS011;1680;48.106;11.708;2022-09-03T11:14:48;3.17;;;2.80;;
1831;SDS011;1680;48.106;11.708;2022-09-03T11:17:18;2.80;;;2.60;;
1831;SDS011;1680;48.106;11.708;2022-09-03T11:19:47;2.67;;;2.47;;
1831;SDS011;1680;48.106;11.708;2022-09-03T11:22:16;3.00;;;2.80;;
1831;SDS011;1680;48.106;11.708;2022-09-03T11:24:43;2.70;;;2.50;;
1831;SDS011;1680;48.106;11.708;2022-09-03T11:27:18;2.83;;;2.63;;
1831;SDS011;1680;48.106;11.708;2022-09-03T11:29:46;2.70;;;2.50;;
1831;SDS011;1680;48.106;11.708;2022-09-03T11:32:17;2.90;;;2.70;;
1831;SDS011;1680;48.106;11.708;2022-09-03T11:34:44;2.47;;;2.37;;
1831;SDS011;1680;48.106;11.708;2022-09-03T11:37:15;2.53;;;2.37;;
1831;SDS011;1680;48.106;11.708;2022-09-03T11:39:43;2.87;;;2.67;;
1831;SDS011;1680;48.106;11.708;2022-09-03T11:42:10;2.90;;;2.70;;
1831;SDS011;1680;48.106;11.708;2022-09-03T11:44:39;2.17;;;2.07;;
1831;SDS011;1680;48.106;11.708;2022-09-03T11:47:13;3.60;;;3.30;;
1831;SDS011;1680;48.106;11.708;2022-09-03T11:49:44;2.90;;;2.70;;
1831;SDS011;1680;48.106;11.708;2022-09-03T11:52:11;2.77;;;2.60;;
1831;SDS011;1680;48.106;11.708;2022-09-03T11:54:42;2.50;;;2.30;;
1831;SDS011;1680;48.106;11.708;2022-09-03T11:57:10;2.50;;;2.40;;
1831;SDS011;1680;48.106;11.708;2022-09-03T11:59:39;2.70;;;2.50;;
1831;SDS011;1680;48.106;11.708;2022-09-03T12:02:22;2.40;;;2.30;;
1831;SDS011;1680;48.106;11.708;2022-09-03T12:04:51;2.33;;;2.13;;
1831;SDS011;1680;48.106;11.708;2022-09-03T12:07:34;3.00;;;2.80;;
1831;SDS011;1680;48.106;11.708;2022-09-03T12:12:51;2.40;;;2.30;;
1831;SDS011;1680;48.106;11.708;2022-09-03T12:15:28;2.97;;;2.77;;
1831;SDS011;1680;48.106;11.708;2022-09-03T12:18:00;2.53;;;2.43;;
1831;SDS011;1680;48.106;11.708;2022-09-03T12:20:44;2.60;;;2.43;;
1831;SDS011;1680;48.106;11.708;2022-09-03T12:23:11;2.30;;;2.20;;
1831;SDS011;1680;48.106;11.708;2022-09-03T12:25:42;2.40;;;2.30;;
1831;SDS011;1680;48.106;11.708;2022-09-03T12:28:11;2.70;;;2.50;;
1831;SDS011;1680;48.106;11.708;2022-09-03T12:30:39;3.00;;;2.80;;
1831;SDS011;1680;48.106;11.708;2022-09-03T12:33:06;3.40;;;2.80;;
1831;SDS011;1680;48.106;11.708;2022-09-03T12:35:36;2.57;;;2.37;;
1831;SDS011;1680;48.106;11.708;2022-09-03T12:38:02;2.40;;;2.20;;
1831;SDS011;1680;48.106;11.708;2022-09-03T12:40:29;3.00;;;2.80;;
1831;SDS011;1680;48.106;11.708;2022-09-03T12:43:10;2.70;;;2.50;;
1831;SDS011;1680;48.106;11.708;2022-09-03T12:45:42;2.70;;;2.50;;
1831;SDS011;1680;48.106;11.708;2022-09-03T12:48:11;2.20;;;2.10;;
1831;SDS011;1680;48.106;11.708;2022-09-03T12:50:38;2.40;;;2.30;;
1831;SDS011;1680;48.106;11.708;2022-09-03T12:53:05;2.73;;;2.53;;
1831;SDS011;1680;48.106;11.708;2022-09-03T12:55:34;2.50;;;2.30;;
1831;SDS011;1680;48.106;11.708;2022-09-03T12:58:02;2.33;;;2.10;;
1831;SDS011;1680;48.106;11.708;2022-09-03T13:00:31;2.63;;;2.43;;
1831;SDS011;1680;48.106;11.708;2022-09-03T13:03:03;2.73;;;2.53;;
1831;SDS011;1680;48.106;11.708;2022-09-03T13:05:31;2.87;;;2.67;;
1831;SDS011;1680;48.106;11.708;2022-09-03T13:07:58;2.60;;;2.27;;
1831;SDS011;1680;48.106;11.708;2022-09-03T13:10:30;2.73;;;2.53;;
1831;SDS011;1680;48.106;11.708;2022-09-03T13:12:58;2.70;;;2.50;;
1831;SDS011;1680;48.106;11.708;2022-09-03T13:15:25;2.20;;;2.10;;
1831;SDS011;1680;48.106;11.708;2022-09-03T13:20:40;2.30;;;2.10;;
1831;SDS011;1680;48.106;11.708;2022-09-03T13:23:17;2.20;;;2.10;;
1831;SDS011;1680;48.106;11.708;2022-09-03T13:25:49;1.90;;;1.80;;
1831;SDS011;1680;48.106;11.708;2022-09-03T13:28:22;2.97;;;2.27;;
1831;SDS011;1680;48.106;11.708;2022-09-03T13:30:53;3.10;;;2.33;;
1831;SDS011;1680;48.106;11.708;2022-09-03T13:33:21;2.30;;;2.10;;
1831;SDS011;1680;48.106;11.708;2022-09-03T13:35:52;4.00;;;2.60;;
1831;SDS011;1680;48.106;11.708;2022-09-03T13:38:21;2.30;;;2.20;;
1831;SDS011;1680;48.106;11.708;2022-09-03T13:40:51;2.63;;;2.43;;
1831;SDS011;1680;48.106;11.708;2022-09-03T13:43:27;2.47;;;2.13;;
1831;SDS011;1680;48.106;11.708;2022-09-03T13:45:56;2.50;;;2.30;;
1831;SDS011;1680;48.106;11.708;2022-09-03T13:48:25;2.37;;;2.20;;
1831;SDS011;1680;48.106;11.708;2022-09-03T13:51:25;3.43;;;2.47;;
1831;SDS011;1680;48.106;11.708;2022-09-03T13:53:57;2.63;;;2.43;;
1831;SDS011;1680;48.106;11.708;2022-09-03T13:56:28;2.47;;;2.27;;
1831;SDS011;1680;48.106;11.708;2022-09-03T13:59:00;2.80;;;2.53;;
1831;SDS011;1680;48.106;11.708;2022-09-03T14:01:34;2.90;;;2.70;;
1831;SDS011;1680;48.106;11.708;2022-09-03T14:04:09;2.03;;;1.93;;
1831;SDS011;1680;48.106;11.708;2022-09-03T14:06:39;2.50;;;2.40;;
1831;SDS011;1680;48.106;11.708;2022-09-03T14:09:11;2.93;;;2.70;;
1831;SDS011;1680;48.106;11.708;2022-09-03T14:11:43;2.87;;;2.67;;
1831;SDS011;1680;48.106;11.708;2022-09-03T14:14:13;3.57;;;2.60;;
1831;SDS011;1680;48.106;11.708;2022-09-03T14:16:45;2.90;;;2.33;;
1831;SDS011;1680;48.106;11.708;2022-09-03T14:19:14;3.00;;;2.80;;
1831;SDS011;1680;48.106;11.708;2022-09-03T14:21:44;2.40;;;2.30;;
1831;SDS011;1680;48.106;11.708;2022-09-03T14:24:16;2.80;;;2.60;;
1831;SDS011;1680;48.106;11.708;2022-09-03T14:26:49;2.87;;;2.67;;
1831;SDS011;1680;48.106;11.708;2022-09-03T14:29:16;2.90;;;2.70;;
1831;SDS011;1680;48.106;11.708;2022-09-03T14:31:54;3.10;;;2.90;;
1831;SDS011;1680;48.106;11.708;2022-09-03T14:34:27;2.87;;;2.67;;
1831;SDS011;1680;48.106;11.708;2022-09-03T14:36:58;2.90;;;2.70;;
1831;SDS011;1680;48.106;11.708;2022-09-03T14:39:29;2.90;;;2.70;;
1831;SDS011;1680;48.106;11.708;2022-09-03T14:47:27;4.23;;;1.60;;
1831;SDS011;1680;48.106;11.708;2022-09-03T14:50:02;4.33;;;2.00;;
1831;SDS011;1680;48.106;11.708;2022-09-03T14:52:41;2.37;;;1.77;;
1831;SDS011;1680;48.106;11.708;2022-09-03T14:55:18;2.70;;;1.87;;
1831;SDS011;1680;48.106;11.708;2022-09-03T14:57:52;2.60;;;2.10;;
1831;SDS011;1680;48.106;11.708;2022-09-03T15:00:21;3.20;;;2.30;;
1831;SDS011;1680;48.106;11.708;2022-09-03T15:05:41;3.80;;;2.20;;
1831;SDS011;1680;48.106;11.708;2022-09-03T15:08:13;3.83;;;2.13;;
1831;SDS011;1680;48.106;11.708;2022-09-03T15:10:43;3.70;;;2.13;;
1831;SDS011;1680;48.106;11.708;2022-09-03T15:13:11;3.30;;;2.20;;
1831;SDS011;1680;48.106;11.708;2022-09-03T15:15:45;3.30;;;1.90;;
1831;SDS011;1680;48.106;11.708;2022-09-03T15:18:15;3.30;;;2.30;;
1831;SDS011;1680;48.106;11.708;2022-09-03T15:20:48;4.50;;;2.17;;
1831;SDS011;1680;48.106;11.708;2022-09-03T15:23:22;2.80;;;2.37;;
1831;SDS011;1680;48.106;11.708;2022-09-03T15:28:42;2.83;;;2.30;;
1831;SDS011;1680;48.106;11.708;2022-09-03T15:31:12;2.60;;;2.13;;
1831;SDS011;1680;48.106;11.708;2022-09-03T15:33:43;3.60;;;2.20;;